Time;durP1;ratioP1;P1;durP2;ratioP2;P2;SDS_P1;SDS_P2;PMS_P1;PMS_P2;Temp;Humidity;BMP_temperature;BMP_pressure;BME280_temperature;BME280_humidity;BME280_pressure;Samples;Min_cycle;Max_cycle;Signal;HPM_P1;HPM_P2
2022/01/21 00:01:09;;;;;;;12.20;7.37;;;;;;;-143.84;37.07;45132.84;5088717;28;20537;-73
2022/01/21 00:03:36;;;;;;;11.87;6.07;;;;;;;-143.84;37.18;45134.75;5089048;28;20455;-73
2022/01/21 00:06:06;;;;;;;10.40;6.47;;;;;;;-143.84;37.04;45127.13;5089699;28;20432;-73
2022/01/21 00:08:34;;;;;;;14.13;6.77;;;;;;;-143.84;36.90;45144.28;5089761;28;20454;-73
2022/01/21 00:11:01;;;;;;;11.17;6.00;;;;;;;-143.84;37.02;45117.63;5090212;28;20501;-73
2022/01/21 00:13:35;;;;;;;8.60;6.07;;;;;;;-143.84;37.09;45150.00;5089203;28;20440;-73
2022/01/21 00:16:02;;;;;;;9.27;5.80;;;;;;;-143.84;37.11;45136.66;5089767;28;20428;-73
2022/01/21 00:18:32;;;;;;;9.93;5.57;;;;;;;-143.84;36.62;45106.19;5089875;28;20469;-73
2022/01/21 00:31:57;;;;;;;9.60;7.00;;;;;;;-143.84;36.59;45129.03;5089878;28;21298;-73
2022/01/21 00:34:25;;;;;;;15.30;7.67;;;;;;;-143.84;36.83;45178.56;5089634;28;20483;-73
2022/01/21 00:36:54;;;;;;;13.57;7.83;;;;;;;-143.84;36.58;45121.44;5089663;28;20917;-73
2022/01/21 00:39:24;;;;;;;12.27;7.10;;;;;;;-143.84;36.53;45111.91;5089513;28;20432;-73
2022/01/21 00:41:59;;;;;;;12.60;8.40;;;;;;;-143.84;36.76;45087.16;5089379;28;20436;-72
2022/01/21 00:44:27;;;;;;;10.70;8.03;;;;;;;-143.84;36.84;45146.19;5089444;28;20431;-72
2022/01/21 00:46:55;;;;;;;15.17;7.90;;;;;;;-143.84;36.64;45129.03;5089516;28;21172;-73
2022/01/21 00:49:22;;;;;;;13.03;7.30;;;;;;;-143.84;36.34;45148.09;5089607;28;20500;-73
2022/01/21 00:51:51;;;;;;;13.53;7.50;;;;;;;-143.84;36.08;45104.28;5089473;28;21025;-73
2022/01/21 00:54:19;;;;;;;10.63;6.23;;;;;;;-143.84;35.98;45138.56;5089827;28;20452;-73
2022/01/21 00:56:46;;;;;;;10.13;5.80;;;;;;;-143.84;35.76;45110.00;5089442;28;20444;-73
2022/01/21 00:59:13;;;;;;;11.23;5.80;;;;;;;-143.84;35.88;45104.28;5089325;28;20452;-73
2022/01/21 01:01:42;;;;;;;6.03;5.37;;;;;;;-143.84;36.07;45125.22;5089457;28;20487;-73
2022/01/21 01:04:09;;;;;;;10.97;5.87;;;;;;;-143.84;36.03;45117.63;5089247;28;20992;-73
2022/01/21 01:06:36;;;;;;;6.07;4.47;;;;;;;-143.84;35.90;45138.56;5089373;28;20432;-73
2022/01/21 01:09:05;;;;;;;7.00;4.67;;;;;;;-143.84;35.48;45121.44;5089280;28;20641;-73
2022/01/21 01:11:46;;;;;;;11.73;4.43;;;;;;;-143.84;35.55;45140.47;5088188;28;20470;-73
2022/01/21 01:20:00;;;;;;;5.60;4.33;;;;;;;-143.84;35.11;45117.63;5066156;28;20530;-73
2022/01/21 01:22:39;;;;;;;8.03;4.53;;;;;;;-143.84;34.93;45108.09;5079396;28;20447;-73
2022/01/21 01:27:53;;;;;;;7.87;4.43;;;;;;;-143.84;34.86;45130.94;5088071;28;20443;-73
2022/01/21 01:30:22;;;;;;;5.77;4.77;;;;;;;-143.84;35.33;45125.22;5088626;28;20863;-73
2022/01/21 01:32:50;;;;;;;6.40;4.20;;;;;;;-143.84;34.94;45136.66;5088908;28;20487;-73
2022/01/21 01:35:20;;;;;;;6.37;4.30;;;;;;;-143.84;35.33;45123.34;5088941;28;20914;-73
2022/01/21 01:40:38;;;;;;;5.00;4.07;;;;;;;-143.84;35.03;45115.72;5091415;28;20479;-73
2022/01/21 01:51:30;;;;;;;9.00;4.30;;;;;;;-143.84;35.89;45121.44;5088203;28;20478;-72
2022/01/21 01:54:00;;;;;;;6.03;4.57;;;;;;;-143.84;36.01;45113.81;5093437;28;20817;-72
2022/01/21 01:56:32;;;;;;;10.47;3.50;;;;;;;-143.84;36.41;45121.44;5092716;28;20502;-71
2022/01/21 01:58:59;;;;;;;4.50;3.93;;;;;;;-143.84;36.98;45113.81;5093987;28;20946;-72
2022/01/21 02:01:26;;;;;;;3.43;3.13;;;;;;;-143.84;36.75;45146.19;5093066;28;20475;-72
2022/01/21 02:03:54;;;;;;;8.17;4.50;;;;;;;-143.84;37.04;45115.72;5093048;28;20428;-72
2022/01/21 02:06:21;;;;;;;6.50;3.50;;;;;;;-143.84;37.21;45119.53;5093727;28;20452;-72
2022/01/21 02:08:49;;;;;;;6.40;3.60;;;;;;;-143.84;37.28;45113.81;5093534;28;20514;-72
2022/01/21 02:11:16;;;;;;;3.60;3.20;;;;;;;-143.84;37.70;45123.34;5093312;28;20510;-72
2022/01/21 02:13:48;;;;;;;3.07;2.77;;;;;;;-143.84;37.55;45104.28;5093473;28;20497;-72
2022/01/21 02:16:33;;;;;;;7.70;3.97;;;;;;;-143.84;37.18;45119.53;5093596;28;20480;-72
2022/01/21 02:21:47;;;;;;;4.90;3.10;;;;;;;-143.84;37.70;45117.63;5093114;28;20474;-72
2022/01/21 02:24:19;;;;;;;8.53;3.83;;;;;;;-143.84;37.33;45115.72;5093325;28;20515;-72
2022/01/21 02:26:48;;;;;;;4.80;3.30;;;;;;;-143.84;37.74;45127.13;5092731;28;20450;-71
2022/01/21 02:29:26;;;;;;;4.07;3.63;;;;;;;-143.84;37.90;45121.44;5092148;28;20448;-71
2022/01/21 02:31:54;;;;;;;4.20;3.17;;;;;;;-143.84;37.49;45125.22;5091994;28;20440;-71
2022/01/21 02:34:21;;;;;;;4.70;3.10;;;;;;;-143.84;38.23;45110.00;5091764;28;20475;-72
2022/01/21 02:36:50;;;;;;;6.93;4.20;;;;;;;-143.84;37.81;45110.00;5091157;28;20522;-73
2022/01/21 02:39:18;;;;;;;6.30;4.33;;;;;;;-143.84;38.01;45121.44;5091069;28;20521;-73
2022/01/21 02:41:45;;;;;;;5.10;3.70;;;;;;;-143.84;38.04;45115.72;5090331;28;20483;-74
2022/01/21 02:44:15;;;;;;;4.63;4.23;;;;;;;-143.84;38.01;45127.13;5090297;28;20436;-74
2022/01/21 02:46:43;;;;;;;4.80;4.40;;;;;;;-143.84;38.60;45129.03;5090780;28;20443;-73
2022/01/21 02:49:11;;;;;;;5.57;4.40;;;;;;;-143.84;38.72;45102.38;5090238;28;21008;-73
2022/01/21 02:51:38;;;;;;;7.70;4.63;;;;;;;-143.84;38.85;45083.34;5090960;28;20451;-73
2022/01/21 02:54:07;;;;;;;4.30;3.90;;;;;;;-143.84;39.12;45113.81;5090964;28;20445;-73
2022/01/21 02:56:37;;;;;;;5.03;4.07;;;;;;;-143.84;40.00;45102.38;5091104;28;20444;-73
2022/01/21 02:59:04;;;;;;;5.13;3.50;;;;;;;-143.84;39.90;45125.22;5090838;28;20446;-73
2022/01/21 03:01:35;;;;;;;3.87;3.57;;;;;;;-143.84;40.80;45106.19;5091959;28;20475;-72
2022/01/21 03:04:04;;;;;;;6.20;3.80;;;;;;;-143.84;40.31;45138.56;5092977;28;20466;-72
2022/01/21 03:06:33;;;;;;;4.87;4.47;;;;;;;-143.84;40.83;45111.91;5092614;28;20902;-72
2022/01/21 03:09:00;;;;;;;4.73;4.30;;;;;;;-143.84;40.19;45129.03;5092287;28;20471;-72
2022/01/21 03:11:29;;;;;;;4.57;3.70;;;;;;;-143.84;40.63;45098.56;5091523;28;20930;-73
2022/01/21 03:13:57;;;;;;;4.90;4.07;;;;;;;-143.84;49.91;45108.09;5092137;28;20451;-78
2022/01/21 03:16:25;;;;;;;5.13;4.37;;;;;;;-143.84;41.90;45110.00;5091984;28;20447;-73
2022/01/21 03:18:53;;;;;;;5.93;4.77;;;;;;;-143.84;41.00;45119.53;5090428;28;20444;-72
2022/01/21 03:21:21;;;;;;;4.93;4.20;;;;;;;-143.84;41.31;45094.78;5090698;28;20498;-73
2022/01/21 03:23:50;;;;;;;8.03;5.07;;;;;;;-143.84;41.98;45117.63;5090508;28;20485;-73
2022/01/21 03:26:18;;;;;;;9.40;5.27;;;;;;;-143.84;42.73;45111.91;5089543;28;20852;-73
2022/01/21 03:28:51;;;;;;;9.00;4.80;;;;;;;-143.84;43.38;45153.81;5090870;28;21018;-73
2022/01/21 03:31:18;;;;;;;5.90;4.87;;;;;;;-143.84;43.46;45117.63;5090560;28;20444;-73
2022/01/21 03:33:46;;;;;;;4.90;4.40;;;;;;;-143.84;43.92;45106.19;5090339;28;20503;-73
2022/01/21 03:36:13;;;;;;;4.03;3.63;;;;;;;-143.84;44.44;45121.44;5090794;28;20874;-73
2022/01/21 03:38:42;;;;;;;10.00;5.10;;;;;;;-143.84;44.69;45132.84;5090322;28;20816;-73
2022/01/21 03:41:09;;;;;;;4.17;3.87;;;;;;;-143.84;45.10;45094.78;5090354;28;20472;-73
2022/01/21 03:43:37;;;;;;;7.10;4.40;;;;;;;-143.84;45.59;45151.91;5089973;28;20933;-73
2022/01/21 03:46:05;;;;;;;5.00;4.17;;;;;;;-143.84;46.69;45119.53;5089420;28;20432;-73
2022/01/21 03:48:33;;;;;;;8.23;3.90;;;;;;;-143.84;47.63;45098.56;5089560;28;20592;-73
2022/01/21 03:51:00;;;;;;;8.50;3.93;;;;;;;-143.84;48.36;45115.72;5090298;28;20444;-75
2022/01/21 03:53:28;;;;;;;5.83;3.70;;;;;;;-143.84;50.02;45129.03;5091207;28;20565;-75
2022/01/21 03:55:55;;;;;;;4.53;3.37;;;;;;;-143.84;50.02;45132.84;5089284;28;20439;-75
2022/01/21 03:58:23;;;;;;;3.97;3.57;;;;;;;-143.84;50.36;45130.94;5091165;28;20452;-75
2022/01/21 04:00:52;;;;;;;9.10;4.00;;;;;;;-143.84;51.28;45110.00;5088009;28;20483;-74
2022/01/21 04:03:26;;;;;;;5.63;4.20;;;;;;;-143.84;50.92;45138.56;5089086;28;20436;-75
2022/01/21 04:05:53;;;;;;;9.47;3.60;;;;;;;-143.84;51.18;45130.94;5090826;28;20520;-75
2022/01/21 04:08:21;;;;;;;5.03;3.20;;;;;;;-143.84;51.72;45121.44;5090563;28;20568;-75
2022/01/21 04:10:48;;;;;;;5.20;4.40;;;;;;;-143.84;51.91;45111.91;5090544;28;20432;-75
2022/01/21 04:13:18;;;;;;;6.37;4.60;;;;;;;-143.84;52.05;45138.56;5091130;28;20982;-75
2022/01/21 04:15:48;;;;;;;6.57;4.00;;;;;;;-143.84;52.58;45130.94;5090765;28;20446;-74
2022/01/21 04:18:15;;;;;;;7.00;4.37;;;;;;;-143.84;53.28;45123.34;5090636;28;20446;-73
2022/01/21 04:20:45;;;;;;;4.40;4.00;;;;;;;-143.84;53.83;45127.13;5090695;28;20448;-74
2022/01/21 04:23:13;;;;;;;5.03;3.93;;;;;;;-143.84;53.78;45144.28;5090704;28;20444;-75
2022/01/21 04:25:40;;;;;;;6.40;5.60;;;;;;;-143.84;53.83;45110.00;5091108;28;20436;-75
2022/01/21 04:28:08;;;;;;;7.67;4.87;;;;;;;-143.84;53.53;45136.66;5090800;28;20492;-74
2022/01/21 04:30:35;;;;;;;10.50;5.70;;;;;;;-143.84;54.07;45121.44;5090755;28;20440;-74
2022/01/21 04:33:03;;;;;;;5.90;5.20;;;;;;;-143.84;53.60;45153.81;5090507;28;20475;-75
2022/01/21 04:35:32;;;;;;;7.27;5.20;;;;;;;-143.84;53.92;45127.13;5091177;28;20838;-75
2022/01/21 04:38:03;;;;;;;5.27;4.37;;;;;;;-143.84;54.20;45130.94;5090719;28;20493;-74
2022/01/21 04:40:35;;;;;;;9.90;4.77;;;;;;;-143.84;54.86;45140.47;5090859;28;20540;-75
2022/01/21 04:48:33;;;;;;;4.23;3.83;;;;;;;-143.84;56.53;45113.81;5091142;28;20427;-75
2022/01/21 04:51:12;;;;;;;5.43;4.47;;;;;;;-143.84;57.05;45142.38;5090483;28;20493;-74
2022/01/21 04:53:43;;;;;;;6.37;4.50;;;;;;;-143.84;57.25;45148.09;5090591;28;20438;-74
2022/01/21 04:56:10;;;;;;;10.97;4.87;;;;;;;-143.84;57.70;45161.41;5089634;28;20448;-73
2022/01/21 04:58:37;;;;;;;13.13;4.70;;;;;;;-143.84;58.35;45125.22;5089165;28;20447;-73
2022/01/21 05:01:06;;;;;;;8.20;5.17;;;;;;;-143.84;58.85;45144.28;5088974;28;20528;-73
2022/01/21 05:03:34;;;;;;;5.53;4.30;;;;;;;-143.84;59.56;45123.34;5089383;28;20792;-73
2022/01/21 05:06:02;;;;;;;5.13;4.63;;;;;;;-143.84;59.46;45123.34;5089252;28;20447;-73
2022/01/21 05:08:36;;;;;;;14.37;4.57;;;;;;;-143.84;59.13;45127.13;5089110;28;20442;-73
2022/01/21 05:11:05;;;;;;;5.20;4.70;;;;;;;-143.84;59.11;45165.22;5090944;28;20446;-73
2022/01/21 05:13:38;;;;;;;4.90;4.47;;;;;;;-143.84;59.47;45138.56;5093310;28;21225;-73
2022/01/21 05:16:10;;;;;;;6.30;4.40;;;;;;;-143.84;59.95;45094.78;5093157;28;20447;-73
2022/01/21 05:18:37;;;;;;;7.27;5.30;;;;;;;-143.84;60.78;45121.44;5092822;28;20442;-73
2022/01/21 05:21:05;;;;;;;7.47;5.00;;;;;;;-143.84;61.30;45150.00;5092342;28;20493;-73
2022/01/21 05:23:32;;;;;;;8.27;6.73;;;;;;;-143.84;62.26;45153.81;5093053;28;20432;-73
2022/01/21 05:25:59;;;;;;;10.80;5.60;;;;;;;-143.84;62.42;45140.47;5093196;28;20436;-73
2022/01/21 05:28:27;;;;;;;13.53;5.07;;;;;;;-143.84;62.99;45153.81;5093076;28;20446;-73
2022/01/21 05:30:55;;;;;;;7.53;5.53;;;;;;;-143.84;63.71;45144.28;5092817;28;20439;-73
2022/01/21 05:33:22;;;;;;;10.70;5.30;;;;;;;-143.84;64.07;45144.28;5092579;28;20487;-73
2022/01/21 05:35:49;;;;;;;14.60;6.20;;;;;;;-143.84;64.79;45144.28;5092787;28;20821;-73
2022/01/21 05:38:16;;;;;;;7.67;5.90;;;;;;;-143.84;65.43;45132.84;5092280;28;20496;-72
2022/01/21 05:40:46;;;;;;;7.27;5.17;;;;;;;-143.84;66.23;45134.75;5092090;28;20465;-73
2022/01/21 05:43:13;;;;;;;11.90;6.97;;;;;;;-143.84;67.06;45140.47;5086909;28;21058;-73
2022/01/21 05:48:26;;;;;;;6.47;5.63;;;;;;;-143.84;67.11;45132.84;5080605;28;21172;-72
2022/01/21 05:50:53;;;;;;;5.93;5.37;;;;;;;-143.84;67.59;45176.66;5071884;28;21367;-72
2022/01/21 05:53:22;;;;;;;6.53;5.07;;;;;;;-143.84;67.89;45138.56;5072489;28;20452;-73
2022/01/21 05:55:49;;;;;;;7.17;5.50;;;;;;;-143.84;67.55;45153.81;5073234;28;20436;-73
2022/01/21 05:58:16;;;;;;;8.53;5.97;;;;;;;-143.84;67.90;45123.34;5072153;28;20468;-73
2022/01/21 06:00:48;;;;;;;6.13;5.33;;;;;;;-143.84;67.96;45142.38;5072386;28;20425;-74
2022/01/21 06:03:16;;;;;;;6.67;5.47;;;;;;;-143.84;67.55;45136.66;5072324;28;20484;-74
2022/01/21 06:05:44;;;;;;;9.90;6.00;;;;;;;-143.84;68.09;45146.19;5072468;28;20437;-74
2022/01/21 06:08:12;;;;;;;6.13;4.90;;;;;;;-143.84;68.15;45142.38;5072075;28;20510;-74
2022/01/21 06:10:39;;;;;;;11.67;6.23;;;;;;;-143.84;70.69;45129.03;5072976;28;20441;-75
2022/01/21 06:13:07;;;;;;;6.87;5.30;;;;;;;-143.84;69.46;45151.91;5072484;28;20942;-76
2022/01/21 06:15:34;;;;;;;5.97;5.43;;;;;;;-143.84;69.68;45138.56;5072587;28;20445;-76
2022/01/21 06:18:12;;;;;;;5.80;5.20;;;;;;;-143.84;70.32;45130.94;5072425;28;20452;-75
2022/01/21 06:20:44;;;;;;;5.90;5.30;;;;;;;-143.84;71.17;45123.34;5072064;28;20437;-75
2022/01/21 06:23:11;;;;;;;8.07;5.43;;;;;;;-143.84;71.61;45134.75;5071485;28;20490;-76
2022/01/21 06:25:39;;;;;;;7.80;6.00;;;;;;;-143.84;72.07;45138.56;5071137;28;20456;-75
2022/01/21 06:28:06;;;;;;;9.10;5.77;;;;;;;-143.84;72.48;45125.22;5071138;28;20841;-75
2022/01/21 06:30:33;;;;;;;7.67;5.83;;;;;;;-143.84;72.63;45155.69;5070963;28;20470;-75
2022/01/21 06:33:01;;;;;;;9.80;6.40;;;;;;;-143.84;72.67;45125.22;5070414;28;20537;-75
2022/01/21 06:35:31;;;;;;;6.73;6.03;;;;;;;-143.84;73.13;45111.91;5070120;28;20443;-75
2022/01/21 06:37:58;;;;;;;10.33;7.07;;;;;;;-143.84;73.45;45127.13;5070762;28;20476;-75
2022/01/21 06:40:25;;;;;;;12.63;6.77;;;;;;;-143.84;74.08;45150.00;5071321;28;20440;-75
2022/01/21 06:42:53;;;;;;;12.17;6.80;;;;;;;-143.84;73.89;45144.28;5070783;28;20873;-75
2022/01/21 06:45:21;;;;;;;7.47;6.60;;;;;;;-143.84;74.30;45159.50;5071726;28;20437;-75
2022/01/21 06:47:48;;;;;;;7.33;6.63;;;;;;;-143.84;74.91;45148.09;5071511;28;20435;-75
2022/01/21 06:50:15;;;;;;;12.80;6.50;;;;;;;-143.84;74.93;45140.47;5071654;28;20905;-75
2022/01/21 06:52:44;;;;;;;8.50;7.53;;;;;;;-143.84;75.29;45123.34;5072141;28;20855;-75
2022/01/21 06:55:11;;;;;;;10.50;7.47;;;;;;;-143.84;75.07;45144.28;5071946;28;20432;-76
2022/01/21 06:57:39;;;;;;;10.80;7.07;;;;;;;-143.84;75.10;45153.81;5071777;28;20845;-76
2022/01/21 07:00:09;;;;;;;8.43;6.30;;;;;;;-143.84;75.05;45167.13;5070433;28;20955;-73
2022/01/21 07:02:36;;;;;;;14.63;9.30;;;;;;;-143.84;75.55;45140.47;5070751;28;20541;-73
2022/01/21 07:05:04;;;;;;;11.30;7.23;;;;;;;-143.84;74.71;45125.22;5070809;28;20433;-73
2022/01/21 07:07:32;;;;;;;12.30;8.50;;;;;;;-143.84;74.40;45130.94;5071031;28;20437;-73
2022/01/21 07:10:01;;;;;;;10.70;8.17;;;;;;;-143.84;74.18;45125.22;5070842;28;20460;-73
2022/01/21 07:12:28;;;;;;;9.83;7.23;;;;;;;-143.84;74.37;45142.38;5070878;28;20536;-73
2022/01/21 07:14:55;;;;;;;6.40;5.80;;;;;;;-143.84;74.22;45130.94;5070784;28;20437;-73
2022/01/21 07:17:23;;;;;;;8.03;7.23;;;;;;;-143.84;74.53;45132.84;5070394;28;20432;-73
2022/01/21 07:19:50;;;;;;;16.70;11.97;;;;;;;-143.84;74.61;45132.84;5070619;28;20440;-73
2022/01/21 07:22:17;;;;;;;59.80;28.10;;;;;;;-143.84;74.31;45142.38;5070009;28;20483;-72
2022/01/21 07:24:45;;;;;;;14.87;10.13;;;;;;;-143.84;74.59;45121.44;5069238;28;20444;-72
2022/01/21 07:27:14;;;;;;;8.40;7.60;;;;;;;-143.84;74.07;45132.84;5069538;28;20471;-72
2022/01/21 07:29:41;;;;;;;7.00;5.90;;;;;;;-143.84;73.59;45125.22;5069959;28;20962;-72
2022/01/21 07:32:09;;;;;;;6.63;5.90;;;;;;;-143.84;73.18;45136.66;5069718;28;20468;-73
2022/01/21 07:34:36;;;;;;;7.60;6.80;;;;;;;-143.84;73.35;45140.47;5069087;28;20436;-72
2022/01/21 07:37:04;;;;;;;7.13;5.97;;;;;;;-143.84;73.53;45123.34;5070146;28;20466;-72
2022/01/21 07:39:31;;;;;;;6.13;5.30;;;;;;;-143.84;73.82;45102.38;5069828;28;20451;-72
2022/01/21 07:41:59;;;;;;;7.50;6.40;;;;;;;-143.84;74.40;45150.00;5069445;28;20904;-72
2022/01/21 07:44:27;;;;;;;7.23;5.80;;;;;;;-143.84;74.47;45123.34;5068820;28;20516;-72
2022/01/21 07:46:55;;;;;;;7.23;6.53;;;;;;;-143.84;74.87;45174.75;5069721;28;20803;-72
2022/01/21 07:49:22;;;;;;;6.33;5.73;;;;;;;-143.84;75.13;45146.19;5069503;28;20441;-72
2022/01/21 07:51:49;;;;;;;7.33;5.60;;;;;;;-143.84;75.51;45150.00;5068904;28;20502;-72
2022/01/21 07:54:17;;;;;;;6.00;5.33;;;;;;;-143.84;75.64;45125.22;5069217;28;20452;-72
2022/01/21 07:56:44;;;;;;;6.57;5.97;;;;;;;-143.84;75.24;45136.66;5069210;28;20464;-72
2022/01/21 07:59:13;;;;;;;6.90;5.80;;;;;;;-143.84;74.91;45110.00;5069316;28;20443;-72
2022/01/21 08:01:42;;;;;;;7.20;6.03;;;;;;;-143.84;74.63;45117.63;5069681;28;20437;-72
2022/01/21 08:04:10;;;;;;;6.20;5.20;;;;;;;-143.84;74.74;45159.50;5069269;28;20444;-72
2022/01/21 08:06:38;;;;;;;6.13;5.63;;;;;;;-143.84;74.43;45123.34;5068881;28;21025;-72
2022/01/21 08:09:07;;;;;;;5.00;4.50;;;;;;;-143.84;74.35;45150.00;5068934;28;20440;-72
2022/01/21 08:11:35;;;;;;;6.20;5.60;;;;;;;-143.84;73.52;45140.47;5068322;28;20447;-72
2022/01/21 08:14:02;;;;;;;9.30;6.30;;;;;;;-143.84;73.17;45125.22;5068817;28;20501;-72
2022/01/21 08:16:29;;;;;;;11.17;6.73;;;;;;;-143.84;72.53;45130.94;5068924;28;20447;-73
2022/01/21 08:18:59;;;;;;;8.77;6.70;;;;;;;-143.84;71.95;45148.09;5069079;28;20445;-73
2022/01/21 08:21:26;;;;;;;8.73;6.60;;;;;;;-143.84;71.57;45136.66;5069219;28;20513;-73
2022/01/21 08:23:55;;;;;;;7.03;6.33;;;;;;;-143.84;71.31;45140.47;5068316;28;20481;-73
2022/01/21 08:26:25;;;;;;;12.10;9.50;;;;;;;-143.84;71.35;45140.47;5069482;28;20449;-72
2022/01/21 08:28:53;;;;;;;5.63;4.77;;;;;;;-143.84;71.20;45138.56;5069301;28;20429;-73
2022/01/21 08:31:21;;;;;;;5.53;4.47;;;;;;;-143.84;71.62;45125.22;5069322;28;20452;-73
2022/01/21 08:33:48;;;;;;;5.90;5.30;;;;;;;-143.84;72.54;45123.34;5069237;28;20541;-73
2022/01/21 08:36:19;;;;;;;5.60;5.10;;;;;;;-143.84;73.30;45129.03;5068365;28;20444;-73
2022/01/21 08:38:46;;;;;;;4.80;4.40;;;;;;;-143.84;75.15;45138.56;5069313;28;20437;-73
2022/01/21 08:41:14;;;;;;;7.97;5.20;;;;;;;-143.84;76.14;45111.91;5068760;28;20505;-73
2022/01/21 08:43:41;;;;;;;4.83;4.33;;;;;;;-143.84;75.89;45144.28;5068951;28;20476;-73
2022/01/21 08:46:09;;;;;;;5.60;4.60;;;;;;;-143.84;75.62;45136.66;5068359;28;20436;-73
2022/01/21 08:48:36;;;;;;;6.73;4.97;;;;;;;-143.84;76.31;45134.75;5068665;28;20444;-73
2022/01/21 08:51:08;;;;;;;8.50;4.77;;;;;;;-143.84;75.41;45108.09;5068468;28;20441;-73
2022/01/21 08:53:38;;;;;;;6.57;5.30;;;;;;;-143.84;74.30;45129.03;5069086;28;20440;-73
2022/01/21 08:56:08;;;;;;;4.63;3.90;;;;;;;-143.84;73.76;45130.94;5068579;28;20490;-73
2022/01/21 08:58:36;;;;;;;7.00;5.37;;;;;;;-143.84;72.66;45148.09;5068994;28;20520;-73
2022/01/21 09:01:05;;;;;;;7.40;5.37;;;;;;;-143.84;72.47;45125.22;5068664;28;20487;-73
2022/01/21 09:03:33;;;;;;;7.17;4.57;;;;;;;-143.84;72.37;45146.19;5068477;28;20532;-73
2022/01/21 09:06:01;;;;;;;5.70;5.10;;;;;;;-143.84;72.04;45117.63;5066992;28;20534;-73
2022/01/21 09:08:30;;;;;;;10.33;7.30;;;;;;;-143.84;71.57;45117.63;5068378;28;20464;-73
2022/01/21 09:11:01;;;;;;;6.07;5.30;;;;;;;-143.84;71.62;45151.91;5068009;28;20555;-73
2022/01/21 09:13:31;;;;;;;6.77;4.83;;;;;;;-143.84;71.42;45136.66;5068554;28;20452;-73
2022/01/21 09:16:01;;;;;;;6.03;5.43;;;;;;;-143.84;71.31;45110.00;5068312;28;20445;-73
2022/01/21 09:18:44;;;;;;;9.27;5.87;;;;;;;-143.84;71.17;45130.94;5068388;28;20443;-73
2022/01/21 09:21:11;;;;;;;7.53;5.53;;;;;;;-143.84;70.82;45132.84;5067724;28;20447;-73
2022/01/21 09:23:38;;;;;;;7.07;6.20;;;;;;;-143.84;70.99;45151.91;5068113;28;20574;-73
2022/01/21 09:26:07;;;;;;;11.00;5.67;;;;;;;-143.84;70.85;45138.56;5067793;28;20436;-73
2022/01/21 09:28:35;;;;;;;7.23;4.87;;;;;;;-143.84;69.20;45129.03;5068555;28;20518;-73
2022/01/21 09:31:03;;;;;;;7.93;5.70;;;;;;;-143.84;68.33;45130.94;5068832;28;20436;-73
2022/01/21 09:33:30;;;;;;;5.63;3.30;;;;;;;-143.84;67.92;45119.53;5068026;28;20488;-73
2022/01/21 09:35:58;;;;;;;4.00;3.70;;;;;;;-143.84;67.08;45142.38;5068389;28;20937;-73
2022/01/21 09:38:26;;;;;;;3.43;2.97;;;;;;;-143.84;67.13;45146.19;5067773;28;20441;-73
2022/01/21 09:40:54;;;;;;;4.03;3.73;;;;;;;-143.84;67.08;45130.94;5067514;28;20530;-73
2022/01/21 09:43:24;;;;;;;3.97;3.67;;;;;;;-143.84;67.24;45138.56;5067902;28;21270;-73
2022/01/21 09:45:54;;;;;;;3.70;3.40;;;;;;;-143.84;67.90;45121.44;5068135;28;20444;-73
2022/01/21 09:48:24;;;;;;;4.20;3.80;;;;;;;-143.84;68.68;45136.66;5068359;28;20440;-73
2022/01/21 09:50:52;;;;;;;4.40;4.00;;;;;;;-143.84;69.94;45148.09;5068037;28;21001;-73
2022/01/21 09:53:27;;;;;;;4.10;3.70;;;;;;;-143.84;71.11;45132.84;5068012;28;20449;-73
2022/01/21 09:55:56;;;;;;;4.47;4.07;;;;;;;-143.84;71.72;45136.66;5068208;28;20436;-73
2022/01/21 09:58:26;;;;;;;3.93;3.63;;;;;;;-143.84;72.85;45098.56;5070424;28;20440;-73
2022/01/21 10:00:54;;;;;;;4.30;3.90;;;;;;;-143.84;74.20;45117.63;5071794;28;20444;-73
2022/01/21 10:03:22;;;;;;;5.43;3.90;;;;;;;-143.84;74.92;45121.44;5071434;28;20503;-73
2022/01/21 10:05:51;;;;;;;6.50;4.13;;;;;;;-143.84;75.79;45132.84;5071583;28;20445;-72
2022/01/21 10:08:21;;;;;;;4.83;4.43;;;;;;;-143.84;76.80;45140.47;5071265;28;20962;-73
2022/01/21 10:10:49;;;;;;;6.47;4.73;;;;;;;-143.84;78.11;45125.22;5071568;28;20433;-73
2022/01/21 10:13:18;;;;;;;4.90;4.40;;;;;;;-143.84;78.68;45151.91;5071192;28;20947;-73
2022/01/21 10:15:48;;;;;;;5.03;4.53;;;;;;;-143.84;78.41;45127.13;5071376;28;20456;-73
2022/01/21 10:18:17;;;;;;;4.73;4.27;;;;;;;-143.84;79.13;45102.38;5071235;28;20466;-73
2022/01/21 10:20:59;;;;;;;4.20;3.80;;;;;;;-143.84;79.76;45106.19;5071482;28;20443;-73
2022/01/21 10:23:27;;;;;;;8.73;5.27;;;;;;;-143.84;80.00;45110.00;5071226;28;20480;-73
2022/01/21 10:26:01;;;;;;;4.83;4.40;;;;;;;-143.84;80.80;45121.44;5071365;28;20441;-70
2022/01/21 10:28:29;;;;;;;4.33;3.93;;;;;;;-143.84;80.52;45104.28;5070746;28;20452;-75
2022/01/21 10:31:09;;;;;;;5.40;4.20;;;;;;;-143.84;80.51;45108.09;5071790;28;20524;-74
2022/01/21 10:33:40;;;;;;;5.20;4.20;;;;;;;-143.84;80.87;45127.13;5071555;28;20499;-76
2022/01/21 10:36:10;;;;;;;7.43;4.90;;;;;;;-143.84;81.62;45163.31;5071785;28;20480;-75
2022/01/21 10:38:43;;;;;;;9.87;4.53;;;;;;;-143.84;82.63;45081.44;5071538;28;20437;-75
2022/01/21 10:41:13;;;;;;;6.33;4.60;;;;;;;-143.84;82.90;45098.56;5071612;28;20528;-75
2022/01/21 10:43:41;;;;;;;5.77;4.73;;;;;;;-143.84;82.81;45100.47;5071965;28;20472;-75
2022/01/21 10:46:14;;;;;;;5.90;5.30;;;;;;;-143.84;83.50;45115.72;5071756;28;20437;-75
2022/01/21 10:48:59;;;;;;;6.33;4.30;;;;;;;-143.84;83.53;45073.81;5071530;28;20487;-74
2022/01/21 10:51:29;;;;;;;4.73;4.33;;;;;;;-143.84;83.55;45094.78;5071636;28;20448;-75
2022/01/21 10:53:57;;;;;;;7.40;4.90;;;;;;;-143.84;83.91;45087.16;5071371;28;20441;-75
2022/01/21 10:56:29;;;;;;;6.17;5.00;;;;;;;-143.84;83.95;45090.97;5071724;28;20437;-75
2022/01/21 10:58:59;;;;;;;4.77;4.40;;;;;;;-143.84;84.32;45096.66;5071217;28;20930;-75
2022/01/21 11:01:30;;;;;;;5.93;5.07;;;;;;;-143.84;84.72;45068.13;5071550;28;20801;-75
2022/01/21 11:04:04;;;;;;;11.70;5.30;;;;;;;-143.84;85.14;45075.72;5071171;28;20564;-75
2022/01/21 11:06:39;;;;;;;7.57;5.00;;;;;;;-143.84;84.16;45094.78;5070772;28;20447;-75
2022/01/21 11:09:30;;;;;;;12.13;5.23;;;;;;;-143.84;84.40;45049.06;5071321;28;20467;-75
2022/01/21 11:12:10;;;;;;;7.17;4.90;;;;;;;-143.84;84.20;45056.69;5065722;28;20445;-75
2022/01/21 11:14:37;;;;;;;7.20;5.43;;;;;;;-143.84;84.26;45037.66;5069491;28;20448;-75
2022/01/21 11:17:15;;;;;;;6.23;5.13;;;;;;;-143.84;84.43;45073.81;5071061;28;20456;-75
2022/01/21 11:20:02;;;;;;;6.73;4.63;;;;;;;-143.84;84.59;45085.25;5070413;28;20453;-73
2022/01/21 11:22:30;;;;;;;4.40;4.00;;;;;;;-143.84;83.84;45085.25;5070308;28;20493;-70
2022/01/21 11:24:59;;;;;;;6.37;4.63;;;;;;;-143.84;83.72;45073.81;5070192;28;20515;-73
2022/01/21 11:27:27;;;;;;;11.40;5.17;;;;;;;-143.84;84.42;45068.13;5069274;28;20463;-73
2022/01/21 11:29:55;;;;;;;4.93;4.50;;;;;;;-143.84;83.63;45096.66;5069942;28;20998;-73
2022/01/21 11:32:24;;;;;;;6.70;5.17;;;;;;;-143.84;84.03;45071.91;5069314;28;20956;-73
2022/01/21 11:34:52;;;;;;;13.70;7.20;;;;;;;-143.84;84.99;45047.16;5069635;28;20460;-73
2022/01/21 11:37:19;;;;;;;10.03;6.80;;;;;;;-143.84;85.32;45045.25;5069593;28;20453;-73
2022/01/21 11:39:46;;;;;;;11.70;6.07;;;;;;;-143.84;85.51;45064.31;5069674;28;20428;-73
2022/01/21 11:42:14;;;;;;;11.90;7.17;;;;;;;-143.84;85.81;45028.13;5069644;28;20440;-73
2022/01/21 11:44:52;;;;;;;17.07;8.90;;;;;;;-143.84;86.76;45016.69;5068871;28;20565;-73
2022/01/21 11:47:48;;;;;;;13.43;7.60;;;;;;;-143.84;86.98;44988.13;5069617;28;20559;-73
2022/01/21 11:50:20;;;;;;;19.10;10.20;;;;;;;-143.84;86.52;45003.38;5069210;28;20452;-73
2022/01/21 11:52:47;;;;;;;17.60;9.57;;;;;;;-143.84;87.00;44974.81;5069876;28;20444;-73
2022/01/21 11:55:32;;;;;;;30.90;13.17;;;;;;;-143.84;86.40;44995.75;5069539;28;20451;-73
2022/01/21 11:58:13;;;;;;;12.73;8.40;;;;;;;-143.84;86.11;45005.28;5069195;28;20843;-73
2022/01/21 12:00:41;;;;;;;5.83;5.20;;;;;;;-143.84;86.63;45022.41;5068545;28;20454;-73
2022/01/21 12:03:09;;;;;;;17.90;8.23;;;;;;;-143.84;86.80;45007.19;5067996;28;20448;-73
2022/01/21 12:05:38;;;;;;;14.23;8.30;;;;;;;-143.84;87.25;44969.09;5068979;28;20448;-73